Time;durP1;ratioP1;P1;durP2;ratioP2;P2;SDS_P1;SDS_P2;PMS_P1;PMS_P2;Temp;Humidity;BMP_temperature;BMP_pressure;BME280_temperature;BME280_humidity;BME280_pressure;Samples;Min_cycle;Max_cycle;Signal;HPM_P1;HPM_P2
2022/05/19 00:02:01;;;;;;;22.60;15.70;;;;;;;6.23;79.91;100043.61;105284;1268;75454;-78
2022/05/19 00:04:28;;;;;;;22.40;15.50;;;;;;;6.19;80.11;100043.23;105324;1268;69232;-78
2022/05/19 00:06:56;;;;;;;22.20;16.30;;;;;;;6.14;80.26;100043.02;105300;1268;72467;-76
2022/05/19 00:09:23;;;;;;;25.50;15.70;;;;;;;6.10;80.31;100043.52;105288;1268;61374;-74
2022/05/19 00:11:52;;;;;;;20.60;15.80;;;;;;;6.07;80.57;100046.60;105346;1268;61925;-77
2022/05/19 00:14:18;;;;;;;24.10;16.10;;;;;;;6.05;81.08;100046.48;105228;1268;75157;-77
2022/05/19 00:16:45;;;;;;;21.50;15.30;;;;;;;6.04;81.05;100045.82;105282;1268;70309;-77
2022/05/19 00:19:13;;;;;;;21.70;15.60;;;;;;;6.02;81.05;100049.57;105201;1268;73238;-78
2022/05/19 00:21:41;;;;;;;19.70;14.90;;;;;;;6.00;81.01;100043.83;105337;1268;61731;-78
2022/05/19 00:24:08;;;;;;;25.70;15.70;;;;;;;5.94;81.39;100046.98;105287;1268;61242;-76
2022/05/19 00:26:36;;;;;;;20.80;16.20;;;;;;;5.89;81.95;100052.08;105291;1268;75307;-76
2022/05/19 00:29:03;;;;;;;22.40;14.90;;;;;;;5.88;82.34;100051.05;105328;1268;69713;-76
2022/05/19 00:31:32;;;;;;;19.40;14.60;;;;;;;5.87;82.53;100049.84;105288;1266;74350;-76
2022/05/19 00:34:00;;;;;;;21.20;16.10;;;;;;;5.84;82.56;100047.11;105264;1268;61279;-76
2022/05/19 00:36:26;;;;;;;23.20;16.00;;;;;;;5.80;82.65;100044.58;105381;1268;61157;-76
2022/05/19 00:38:53;;;;;;;21.20;16.40;;;;;;;5.75;82.80;100043.67;104985;1269;75235;-76
2022/05/19 00:41:21;;;;;;;20.60;16.70;;;;;;;5.71;82.87;100043.09;105298;1268;70150;-77
2022/05/19 00:44:00;;;;;;;22.60;16.70;;;;;;;5.68;83.06;100040.89;105063;1268;380988;-76
2022/05/19 00:46:36;;;;;;;22.30;17.30;;;;;;;5.65;83.37;100035.52;105278;1268;61374;-75
2022/05/19 00:49:12;;;;;;;21.10;15.80;;;;;;;5.61;83.42;100038.27;105326;1268;61267;-76
2022/05/19 00:51:51;;;;;;;23.20;16.10;;;;;;;5.59;83.30;100037.81;105008;1268;74914;-77
2022/05/19 00:54:24;;;;;;;22.60;15.00;;;;;;;5.56;83.29;100041.96;105277;1268;69650;-76
2022/05/19 00:57:04;;;;;;;17.70;14.60;;;;;;;5.54;83.47;100043.80;105298;1268;74017;-77
2022/05/19 00:59:40;;;;;;;18.70;14.40;;;;;;;5.48;83.22;100046.41;105297;1267;61288;-77
2022/05/19 01:02:10;;;;;;;17.70;13.20;;;;;;;5.43;83.41;100047.10;105045;1269;62149;-76
2022/05/19 01:04:43;;;;;;;19.80;14.60;;;;;;;5.38;83.53;100044.41;105318;1268;76096;-76
2022/05/19 01:07:15;;;;;;;20.00;15.60;;;;;;;5.37;83.84;100046.40;105069;1268;66385;-75
2022/05/19 01:09:43;;;;;;;19.30;15.50;;;;;;;5.36;84.08;100045.91;105266;1268;73394;-76
2022/05/19 01:12:10;;;;;;;23.30;15.90;;;;;;;5.33;84.09;100049.69;105273;1268;61379;-77
2022/05/19 01:14:37;;;;;;;23.70;16.20;;;;;;;5.28;84.37;100048.23;105342;1268;61209;-78
2022/05/19 01:17:06;;;;;;;19.90;15.30;;;;;;;5.22;84.65;100049.80;105345;1268;74523;-79
2022/05/19 01:19:44;;;;;;;21.50;15.90;;;;;;;5.18;85.03;100052.21;105322;1268;69275;-77
2022/05/19 01:22:23;;;;;;;19.70;15.70;;;;;;;5.15;85.42;100050.89;105309;1268;73447;-77
2022/05/19 01:25:02;;;;;;;24.10;16.60;;;;;;;5.12;85.68;100050.27;105313;1268;61326;-76
2022/05/19 01:27:30;;;;;;;21.90;16.90;;;;;;;5.10;85.88;100048.40;105331;1268;61223;-77
2022/05/19 01:29:57;;;;;;;21.40;16.50;;;;;;;5.07;86.12;100044.57;105299;1268;75228;-77
2022/05/19 01:32:29;;;;;;;20.30;16.10;;;;;;;5.05;86.06;100043.77;105339;1268;70402;-77
2022/05/19 01:34:57;;;;;;;22.20;16.10;;;;;;;5.01;86.38;100041.39;105339;1268;72696;-76
2022/05/19 01:37:24;;;;;;;21.70;16.90;;;;;;;4.97;86.75;100039.75;105295;1268;61297;-76
2022/05/19 01:39:56;;;;;;;20.00;16.00;;;;;;;4.94;87.00;100039.33;105345;1268;61350;-75
2022/05/19 01:42:33;;;;;;;23.10;16.50;;;;;;;4.91;87.37;100042.74;105046;1269;75336;-75
2022/05/19 01:45:35;;;;;;;22.10;15.80;;;;;;;4.85;87.57;100045.71;105310;1268;69410;-75
2022/05/19 01:48:09;;;;;;;19.00;14.40;;;;;;;4.80;87.75;100049.00;104546;1276;73813;-77
2022/05/19 01:50:44;;;;;;;22.50;16.50;;;;;;;4.76;87.90;100048.40;104606;1276;61320;-77
2022/05/19 01:53:17;;;;;;;20.70;15.40;;;;;;;4.73;87.95;100046.92;104574;1276;61439;-76
2022/05/19 01:56:12;;;;;;;21.80;16.90;;;;;;;4.69;88.05;100047.02;104555;1276;76250;-77
2022/05/19 01:58:38;;;;;;;21.60;16.50;;;;;;;4.65;88.33;100045.73;104538;1276;69458;-75
2022/05/19 02:01:06;;;;;;;22.00;16.40;;;;;;;4.60;88.39;100040.02;104580;1276;73729;-77
2022/05/19 02:04:05;;;;;;;20.80;15.30;;;;;;;4.58;88.76;100038.49;104583;1276;61516;-76
2022/05/19 02:06:41;;;;;;;21.80;15.50;;;;;;;4.56;88.72;100041.37;104425;1276;61447;-75
2022/05/19 02:09:15;;;;;;;20.10;14.30;;;;;;;4.55;88.96;100042.98;104562;1276;75297;-74
2022/05/19 02:11:46;;;;;;;18.60;14.10;;;;;;;4.54;89.20;100038.26;104668;1276;68773;-76
2022/05/19 02:14:17;;;;;;;18.30;15.20;;;;;;;4.54;89.34;100035.25;104564;1276;74543;-75
2022/05/19 02:16:45;;;;;;;19.30;14.20;;;;;;;4.53;89.37;100030.70;104315;1276;61284;-76
2022/05/19 02:19:16;;;;;;;17.40;12.90;;;;;;;4.51;89.36;100028.66;104567;1276;61802;-76
2022/05/19 02:21:44;;;;;;;15.80;13.50;;;;;;;4.47;89.20;100026.65;104610;1276;75181;-76
2022/05/19 02:24:15;;;;;;;16.80;13.10;;;;;;;4.42;89.14;100028.54;104694;1276;68739;-75
2022/05/19 02:26:41;;;;;;;17.60;14.00;;;;;;;4.37;89.34;100029.87;105212;1268;73670;-76
2022/05/19 02:29:12;;;;;;;18.50;13.50;;;;;;;4.33;89.45;100025.23;105275;1268;61259;-78
2022/05/19 02:31:44;;;;;;;14.90;12.80;;;;;;;4.29;89.69;100023.74;105309;1268;61215;-77
2022/05/19 02:34:10;;;;;;;18.40;13.90;;;;;;;4.27;89.86;100025.02;105255;1268;75129;-75
2022/05/19 02:36:38;;;;;;;17.80;13.90;;;;;;;4.26;89.97;100023.98;105278;1268;61461;-79
2022/05/19 02:39:05;;;;;;;17.20;13.90;;;;;;;4.25;90.11;100027.71;105351;1268;72414;-76
2022/05/19 02:41:32;;;;;;;18.80;14.80;;;;;;;4.25;90.32;100027.55;105263;1268;61349;-79
2022/05/19 02:43:59;;;;;;;19.40;14.90;;;;;;;4.25;90.49;100023.50;105302;1268;61319;-78
2022/05/19 02:46:25;;;;;;;20.00;14.60;;;;;;;4.25;90.42;100023.86;105075;1268;74182;-78
2022/05/19 02:48:52;;;;;;;17.40;14.20;;;;;;;4.23;90.63;100025.12;105293;1268;68337;-76
2022/05/19 02:51:19;;;;;;;19.00;14.20;;;;;;;4.22;90.80;100026.73;105265;1268;71604;-76
2022/05/19 02:53:45;;;;;;;19.10;14.70;;;;;;;4.21;90.89;100026.76;105290;1268;61292;-75
2022/05/19 02:56:12;;;;;;;18.70;13.70;;;;;;;4.22;91.00;100028.85;105280;1268;61364;-79
2022/05/19 02:58:38;;;;;;;15.20;13.30;;;;;;;4.23;91.10;100029.70;105305;1268;75294;-77
2022/05/19 03:01:07;;;;;;;16.80;13.10;;;;;;;4.23;91.16;100030.73;105283;1268;61332;-75
2022/05/19 03:03:34;;;;;;;18.40;13.50;;;;;;;4.25;91.10;100026.32;104991;1268;72417;-75
2022/05/19 03:06:00;;;;;;;18.50;14.90;;;;;;;4.26;91.15;100028.39;105282;1268;61188;-77
2022/05/19 03:08:27;;;;;;;16.40;13.50;;;;;;;4.27;91.24;100029.06;105026;1267;61261;-76
2022/05/19 03:10:53;;;;;;;17.80;14.40;;;;;;;4.30;91.43;100033.58;105258;1268;61307;-75
2022/05/19 03:13:22;;;;;;;16.70;14.00;;;;;;;4.31;91.51;100032.48;105274;1268;61380;-77
2022/05/19 03:15:49;;;;;;;18.30;13.80;;;;;;;4.32;91.69;100031.41;105337;1268;74395;-77
2022/05/19 03:18:16;;;;;;;18.70;14.00;;;;;;;4.35;91.64;100032.74;105297;1268;61306;-78
2022/05/19 03:20:43;;;;;;;19.00;15.20;;;;;;;4.38;91.69;100029.31;105235;1268;61789;-77
2022/05/19 03:23:09;;;;;;;19.90;15.20;;;;;;;4.42;91.71;100030.29;105273;1268;75182;-78
2022/05/19 03:25:36;;;;;;;18.00;14.40;;;;;;;4.71;91.55;100033.22;105261;1268;61258;-77
2022/05/19 03:28:03;;;;;;;20.30;15.30;;;;;;;5.96;90.13;100030.14;105260;1268;61219;-78
2022/05/19 03:30:30;;;;;;;16.50;14.30;;;;;;;7.22;87.75;100024.46;105044;1271;62336;-78
2022/05/19 03:32:56;;;;;;;16.80;13.10;;;;;;;8.28;85.38;100018.08;105243;1271;61268;-75
2022/05/19 03:35:23;;;;;;;14.50;12.90;;;;;;;9.25;83.16;100015.52;105219;1271;75318;-77
2022/05/19 03:37:49;;;;;;;13.50;12.10;;;;;;;10.13;80.89;100011.23;105214;1271;61176;-76
2022/05/19 03:40:17;;;;;;;13.10;11.80;;;;;;;10.81;78.23;100009.80;105170;1271;74103;-76
2022/05/19 03:42:44;;;;;;;13.40;12.10;;;;;;;11.50;75.98;100005.06;105436;1271;61340;-76
2022/05/19 03:45:10;;;;;;;12.50;11.30;;;;;;;12.22;73.52;100000.51;105240;1271;61822;-77
2022/05/19 03:47:37;;;;;;;11.50;10.50;;;;;;;12.90;71.18;100002.27;105183;1271;76134;-76
2022/05/19 03:50:04;;;;;;;12.90;11.60;;;;;;;13.49;68.84;99999.01;105243;1270;70041;-79
2022/05/19 03:52:31;;;;;;;12.30;10.80;;;;;;;14.04;66.93;99998.55;105272;1271;72634;-75
2022/05/19 03:54:57;;;;;;;11.90;10.60;;;;;;;14.56;65.31;99995.48;105177;1271;61281;-78
2022/05/19 03:57:24;;;;;;;12.40;11.20;;;;;;;15.04;63.56;99991.98;105200;1271;61291;-76
2022/05/19 03:59:50;;;;;;;13.10;11.70;;;;;;;15.49;61.96;99989.54;105174;1271;61369;-77
2022/05/19 04:02:17;;;;;;;13.50;12.10;;;;;;;16.00;60.26;99987.16;105198;1270;61368;-76
2022/05/19 04:04:43;;;;;;;12.20;11.10;;;;;;;16.44;58.78;99987.27;105188;1271;61294;-75
2022/05/19 04:07:09;;;;;;;13.30;11.90;;;;;;;16.91;57.37;99988.21;105207;1270;61297;-75
2022/05/19 04:09:36;;;;;;;13.50;12.20;;;;;;;17.26;55.93;99988.57;105215;1270;61217;-75
2022/05/19 04:12:03;;;;;;;11.40;10.30;;;;;;;17.55;54.74;99984.59;105199;1271;61174;-75
2022/05/19 04:14:30;;;;;;;11.00;9.60;;;;;;;17.91;53.63;99986.73;105217;1271;69261;-77
2022/05/19 04:16:57;;;;;;;11.30;8.70;;;;;;;18.40;52.85;99985.04;104874;1274;73396;-75
2022/05/19 04:19:23;;;;;;;9.70;8.80;;;;;;;18.83;51.95;99984.11;105222;1271;61864;-75
2022/05/19 04:21:50;;;;;;;11.10;8.90;;;;;;;19.08;50.58;99988.27;105208;1271;61185;-75
2022/05/19 04:24:16;;;;;;;12.50;8.90;;;;;;;19.13;49.43;99987.38;105167;1271;61298;-76
2022/05/19 04:26:43;;;;;;;10.20;8.20;;;;;;;19.34;48.71;99983.54;105201;1271;61162;-75
2022/05/19 04:29:09;;;;;;;10.30;9.10;;;;;;;19.61;47.90;99985.24;105235;1268;61267;-76
2022/05/19 04:31:36;;;;;;;9.10;8.00;;;;;;;19.82;46.89;99986.13;105248;1268;61380;-74
2022/05/19 04:34:05;;;;;;;13.60;8.80;;;;;;;19.81;46.54;99983.73;105237;1268;61276;-75
2022/05/19 04:36:31;;;;;;;10.10;9.10;;;;;;;20.06;45.75;99986.90;105080;1268;75724;-77
2022/05/19 04:38:58;;;;;;;9.90;8.90;;;;;;;20.27;45.19;99984.80;105213;1268;61173;-76
2022/05/19 04:41:25;;;;;;;11.00;9.10;;;;;;;20.34;44.55;99988.83;105244;1268;73396;-76
2022/05/19 04:43:52;;;;;;;10.20;8.60;;;;;;;20.40;43.75;99991.01;105214;1268;61269;-76
2022/05/19 04:46:19;;;;;;;11.40;8.40;;;;;;;20.41;43.29;99986.73;105209;1268;61297;-77
2022/05/19 04:48:45;;;;;;;8.80;8.00;;;;;;;20.52;42.92;99988.98;105221;1268;61382;-77
2022/05/19 04:51:11;;;;;;;8.70;7.60;;;;;;;20.55;42.70;99987.61;105185;1268;61308;-76
2022/05/19 04:53:38;;;;;;;10.10;8.40;;;;;;;20.74;42.57;99988.74;105020;1269;61270;-75
2022/05/19 04:56:05;;;;;;;9.30;8.30;;;;;;;20.96;41.98;99985.47;105183;1268;61278;-75
2022/05/19 04:58:31;;;;;;;8.60;7.00;;;;;;;21.07;41.48;99986.37;105217;1268;61386;-77
2022/05/19 05:00:57;;;;;;;7.90;7.10;;;;;;;21.24;41.34;99988.70;105214;1268;61177;-76
2022/05/19 05:03:25;;;;;;;8.10;6.90;;;;;;;21.38;40.73;99988.29;105086;1271;69312;-76
2022/05/19 05:05:51;;;;;;;9.50;7.10;;;;;;;21.42;40.18;99982.85;105243;1268;73622;-75
2022/05/19 05:08:18;;;;;;;10.50;7.10;;;;;;;21.42;40.02;99984.13;105204;1269;61268;-77
2022/05/19 05:10:45;;;;;;;8.70;6.70;;;;;;;21.54;39.91;99981.05;105046;1271;61483;-77
2022/05/19 05:13:15;;;;;;;6.50;5.90;;;;;;;21.67;39.56;99979.20;105220;1268;61259;-78
2022/05/19 05:15:42;;;;;;;;;;;;;;;21.80;39.08;99978.23;105240;1268;68523;-75
2022/05/19 05:18:10;;;;;;;5.80;5.20;;;;;;;21.82;38.74;99981.30;105200;1268;73635;-75
2022/05/19 05:20:38;;;;;;;7.50;5.60;;;;;;;21.79;38.04;99984.15;105238;1268;61328;-76
2022/05/19 05:23:05;;;;;;;7.00;5.10;;;;;;;21.77;37.60;99987.41;105419;1268;61251;-75
2022/05/19 05:25:32;;;;;;;6.90;5.30;;;;;;;21.67;37.49;99985.13;105194;1268;75545;-75
2022/05/19 05:27:59;;;;;;;7.90;5.50;;;;;;;21.78;37.45;99988.17;105187;1268;69299;-78
2022/05/19 05:30:26;;;;;;;6.90;5.10;;;;;;;22.00;37.32;99988.07;105207;1268;61302;-74
2022/05/19 05:32:53;;;;;;;9.30;5.00;;;;;;;22.16;37.10;99990.13;105266;1268;61278;-75
2022/05/19 05:35:19;;;;;;;6.30;5.10;;;;;;;22.39;36.73;99994.56;105231;1268;61259;-77
2022/05/19 05:37:46;;;;;;;6.50;4.80;;;;;;;22.46;36.16;99990.79;105218;1268;76241;-75
2022/05/19 05:40:13;;;;;;;5.20;4.60;;;;;;;22.47;36.09;99995.73;105238;1268;69345;-75
2022/05/19 05:42:40;;;;;;;6.60;5.00;;;;;;;22.72;36.02;99998.63;105199;1269;72814;-76
2022/05/19 05:45:07;;;;;;;5.70;4.50;;;;;;;22.94;35.49;99994.58;105193;1268;61253;-76
2022/05/19 05:47:34;;;;;;;5.90;5.40;;;;;;;22.84;35.27;99995.63;104995;1268;61756;-75
2022/05/19 05:50:00;;;;;;;5.30;4.60;;;;;;;22.70;35.46;99994.63;105209;1268;61294;-75
2022/05/19 05:52:27;;;;;;;6.30;5.20;;;;;;;22.74;35.06;99993.10;105212;1268;61406;-76
2022/05/19 05:54:54;;;;;;;5.60;4.70;;;;;;;22.76;35.31;99993.11;105179;1268;61144;-75
2022/05/19 05:57:21;;;;;;;5.90;4.60;;;;;;;22.88;35.09;99992.63;104953;1271;61358;-76
2022/05/19 05:59:47;;;;;;;6.20;4.70;;;;;;;23.00;35.38;99988.73;105239;1268;61198;-75
2022/05/19 06:02:15;;;;;;;7.10;4.80;;;;;;;23.10;35.24;99989.33;105229;1268;61199;-75
2022/05/19 06:04:42;;;;;;;6.10;5.00;;;;;;;23.18;35.18;99990.78;105228;1269;70388;-76
2022/05/19 06:07:10;;;;;;;7.40;5.00;;;;;;;23.22;35.05;99990.16;105230;1268;73344;-75
2022/05/19 06:09:38;;;;;;;7.90;5.50;;;;;;;23.28;35.05;99981.50;105264;1268;61243;-76
2022/05/19 06:12:05;;;;;;;7.30;6.60;;;;;;;23.33;35.00;99979.45;105459;1268;61364;-76
2022/05/19 06:14:31;;;;;;;7.20;5.50;;;;;;;23.43;34.89;99980.05;105262;1268;76203;-76
2022/05/19 06:16:58;;;;;;;9.40;5.60;;;;;;;23.50;35.01;99977.84;105243;1268;61238;-73
2022/05/19 06:19:24;;;;;;;6.70;5.90;;;;;;;23.48;34.76;99976.52;105258;1268;61217;-75
2022/05/19 06:21:51;;;;;;;8.30;5.10;;;;;;;23.39;35.03;99976.42;105297;1268;61338;-75
2022/05/19 06:24:17;;;;;;;7.80;5.70;;;;;;;23.42;35.21;99978.52;105325;1268;61298;-78
2022/05/19 06:26:44;;;;;;;6.50;5.40;;;;;;;23.45;35.44;99974.55;105083;1271;61486;-75
2022/05/19 06:29:11;;;;;;;6.90;5.40;;;;;;;23.49;35.05;99973.98;105236;1268;61303;-76
2022/05/19 06:31:37;;;;;;;6.60;5.40;;;;;;;23.49;35.44;99972.20;105241;1268;73287;-75
2022/05/19 06:34:04;;;;;;;6.60;5.70;;;;;;;23.54;35.19;99974.16;105210;1268;61395;-76
2022/05/19 06:36:32;;;;;;;6.30;5.30;;;;;;;23.65;35.03;99972.27;105247;1268;61858;-77
2022/05/19 06:38:58;;;;;;;6.50;5.20;;;;;;;23.51;34.85;99978.09;105276;1269;76046;-76
2022/05/19 06:44:10;;;;;;;8.10;6.00;;;;;;;23.28;35.70;99981.66;105279;1268;73948;-74
2022/05/19 06:46:37;;;;;;;8.40;6.40;;;;;;;23.24;35.73;99980.19;105316;1268;61272;-76
2022/05/19 06:49:04;;;;;;;6.90;5.50;;;;;;;23.08;35.54;99977.15;105278;1268;61708;-76
2022/05/19 06:51:31;;;;;;;9.80;6.60;;;;;;;23.09;36.00;99980.34;105274;1268;76596;-75
2022/05/19 06:53:58;;;;;;;7.70;5.60;;;;;;;23.31;36.09;99977.53;105322;1268;70185;-77
2022/05/19 06:56:24;;;;;;;6.00;5.40;;;;;;;23.27;35.70;99975.77;105249;1268;73526;-78
2022/05/19 06:58:51;;;;;;;5.10;4.40;;;;;;;23.14;35.87;99976.98;105372;1268;61266;-76
2022/05/19 07:01:18;;;;;;;7.20;4.80;;;;;;;23.14;35.91;99976.41;105281;1269;61198;-77
2022/05/19 07:03:44;;;;;;;7.40;4.90;;;;;;;23.24;35.96;99978.64;105224;1267;75627;-78
2022/05/19 07:06:11;;;;;;;5.50;5.00;;;;;;;23.31;35.93;99976.62;105231;1268;61262;-76
2022/05/19 07:08:38;;;;;;;8.30;5.50;;;;;;;23.39;35.74;99975.95;105241;1268;61378;-76
2022/05/19 07:11:06;;;;;;;5.00;4.50;;;;;;;23.49;35.74;99974.20;105247;1269;61361;-76
2022/05/19 07:13:32;;;;;;;6.50;4.80;;;;;;;23.44;35.78;99978.48;105212;1268;61300;-75
2022/05/19 07:15:59;;;;;;;5.40;4.60;;;;;;;23.30;35.95;99974.12;105224;1268;75372;-76
2022/05/19 07:18:26;;;;;;;7.40;5.10;;;;;;;22.95;36.11;99974.55;105233;1268;69012;-76
2022/05/19 07:20:53;;;;;;;7.70;5.20;;;;;;;22.53;36.04;99974.46;105224;1268;74042;-76
2022/05/19 07:23:24;;;;;;;6.90;4.70;;;;;;;22.13;36.57;99978.45;105202;1267;61202;-76
2022/05/19 07:25:51;;;;;;;7.40;4.70;;;;;;;22.00;37.06;99980.43;105272;1268;61300;-75
2022/05/19 07:28:20;;;;;;;7.00;4.70;;;;;;;21.93;37.44;99976.68;104983;1273;73525;-76
2022/05/19 07:30:49;;;;;;;6.40;4.50;;;;;;;21.90;37.44;99978.20;105263;1268;67528;-76
2022/05/19 07:33:15;;;;;;;7.00;3.90;;;;;;;21.82;37.63;99972.11;105247;1268;73122;-76
2022/05/19 07:35:45;;;;;;;8.30;3.50;;;;;;;21.69;37.52;99967.00;105222;1268;61252;-76
2022/05/19 07:38:16;;;;;;;7.80;3.40;;;;;;;21.48;36.71;99965.48;105288;1268;61265;-75
2022/05/19 07:40:44;;;;;;;6.70;3.90;;;;;;;21.24;37.22;99968.49;105292;1268;75235;-76
2022/05/19 07:45:57;;;;;;;5.80;2.30;;;;;;;21.25;37.54;99958.41;105223;1268;74307;-75
2022/05/19 07:48:23;;;;;;;2.70;2.40;;;;;;;21.31;36.64;99955.17;105220;1268;61489;-75
2022/05/19 07:50:50;;;;;;;4.80;2.60;;;;;;;21.40;36.17;99949.42;105206;1268;61341;-76
2022/05/19 07:53:16;;;;;;;5.00;2.90;;;;;;;21.39;35.51;99954.61;105283;1268;61336;-77
2022/05/19 07:55:43;;;;;;;5.50;2.80;;;;;;;21.22;34.95;99953.83;105223;1268;61271;-76
2022/05/19 07:58:09;;;;;;;4.70;2.70;;;;;;;21.11;35.19;99954.89;105243;1268;71603;-76
2022/05/19 08:00:37;;;;;;;2.90;2.30;;;;;;;21.11;35.01;99954.91;105227;1269;61318;-76
2022/05/19 08:03:04;;;;;;;5.10;2.40;;;;;;;21.16;35.12;99952.45;105093;1268;61397;-76
2022/05/19 08:05:30;;;;;;;4.80;3.20;;;;;;;21.26;35.33;99951.65;105214;1268;76289;-77
2022/05/19 08:07:57;;;;;;;4.60;1.90;;;;;;;21.32;34.48;99951.80;105267;1268;61268;-76
2022/05/19 08:10:24;;;;;;;2.30;2.00;;;;;;;21.36;34.32;99950.17;105211;1268;61262;-79
2022/05/19 08:15:40;;;;;;;2.20;1.70;;;;;;;21.35;33.46;99945.70;105245;1268;61741;-78
2022/05/19 08:18:16;;;;;;;4.40;1.90;;;;;;;21.41;33.34;99941.73;105266;1268;75763;-77
2022/05/19 08:20:51;;;;;;;4.60;2.30;;;;;;;21.47;33.40;99941.52;105233;1268;69053;-76
2022/05/19 08:23:27;;;;;;;2.80;2.20;;;;;;;21.56;33.73;99936.69;105208;1268;74438;-77
2022/05/19 08:25:55;;;;;;;4.20;1.50;;;;;;;21.63;33.01;99934.50;105227;1268;61281;-78
2022/05/19 08:28:28;;;;;;;2.90;1.80;;;;;;;21.59;33.00;99935.61;105264;1268;61517;-77
2022/05/19 08:31:02;;;;;;;4.10;2.30;;;;;;;21.57;32.85;99931.68;105227;1268;74657;-77
2022/05/19 08:33:30;;;;;;;5.20;2.00;;;;;;;21.48;31.93;99934.41;105377;1268;71689;-78
2022/05/19 08:35:57;;;;;;;5.70;2.00;;;;;;;21.43;32.54;99936.86;105229;1268;73209;-76
2022/05/19 08:38:24;;;;;;;4.80;1.90;;;;;;;21.57;32.98;99934.63;105193;1268;62689;-75
2022/05/19 08:40:50;;;;;;;2.50;1.70;;;;;;;21.77;33.29;99934.27;105202;1268;61291;-77
2022/05/19 08:43:21;;;;;;;7.50;2.40;;;;;;;21.90;33.31;99930.27;105183;1268;75686;-77
2022/05/19 08:45:53;;;;;;;4.60;2.10;;;;;;;21.97;32.15;99927.60;105239;1268;69482;-76
2022/05/19 08:48:23;;;;;;;4.20;2.00;;;;;;;21.89;31.80;99919.88;105244;1267;73389;-76
2022/05/19 08:51:10;;;;;;;4.80;1.90;;;;;;;21.89;32.02;99921.09;105273;1268;61154;-76
2022/05/19 08:53:41;;;;;;;2.40;1.80;;;;;;;21.98;32.10;99921.67;105267;1268;61194;-76
2022/05/19 08:56:35;;;;;;;5.90;2.30;;;;;;;21.99;31.71;99919.98;105063;1269;75395;-77
2022/05/19 08:59:26;;;;;;;7.80;3.10;;;;;;;22.04;32.09;99919.61;104785;1277;70087;-75
2022/05/19 09:01:59;;;;;;;3.10;1.70;;;;;;;22.15;32.26;99917.61;104794;1277;72831;-76
2022/05/19 09:04:40;;;;;;;4.00;2.00;;;;;;;22.22;31.80;99914.27;104832;1277;61358;-77
2022/05/19 09:10:45;;;;;;;2.60;1.90;;;;;;;22.35;31.60;99918.89;104804;1277;75248;-76
2022/05/19 09:13:29;;;;;;;3.60;1.60;;;;;;;22.27;31.42;99924.74;104813;1277;70803;-77
2022/05/19 09:15:55;;;;;;;3.20;1.90;;;;;;;22.34;32.02;99925.30;104780;1277;73373;-77
2022/05/19 09:18:36;;;;;;;3.20;1.60;;;;;;;22.50;32.21;99920.30;104516;1278;61461;-76
2022/05/19 09:21:05;;;;;;;4.80;1.60;;;;;;;22.54;30.67;99922.02;104750;1277;61462;-75
2022/05/19 09:23:40;;;;;;;4.80;1.80;;;;;;;22.53;31.24;99918.32;104672;1279;75156;-76
2022/05/19 09:26:25;;;;;;;4.80;1.70;;;;;;;22.62;31.10;99918.08;104810;1277;69565;-76
2022/05/19 09:28:58;;;;;;;18.20;5.20;;;;;;;22.66;30.56;99917.14;104772;1277;74646;-77
2022/05/19 09:31:34;;;;;;;4.80;2.30;;;;;;;22.74;31.68;99909.11;104532;1278;61388;-76
2022/05/19 09:34:01;;;;;;;7.70;2.40;;;;;;;22.93;31.41;99905.82;104540;1278;61529;-75
2022/05/19 09:36:28;;;;;;;2.50;1.50;;;;;;;23.05;30.90;99904.25;105002;1268;76974;-77
2022/05/19 09:39:02;;;;;;;3.10;2.10;;;;;;;22.87;29.30;99896.51;105236;1268;69118;-75
2022/05/19 09:41:34;;;;;;;4.70;1.40;;;;;;;22.84;30.89;99899.19;105269;1268;73374;-75
2022/05/19 09:44:04;;;;;;;3.40;1.60;;;;;;;22.98;30.76;99897.75;105265;1268;61322;-77
2022/05/19 09:46:41;;;;;;;1.90;1.40;;;;;;;23.06;30.69;99897.80;105448;1268;61319;-76
2022/05/19 09:49:24;;;;;;;4.40;1.60;;;;;;;23.18;31.06;99894.55;105260;1268;75265;-77
2022/05/19 09:51:51;;;;;;;11.80;1.60;;;;;;;23.32;30.93;99891.24;105233;1268;70312;-74
2022/05/19 09:54:18;;;;;;;2.70;1.40;;;;;;;23.38;30.74;99890.77;105082;1268;73333;-76
2022/05/19 09:56:51;;;;;;;2.00;1.60;;;;;;;23.44;30.54;99887.63;105318;1268;61298;-77
2022/05/19 09:59:20;;;;;;;1.80;1.20;;;;;;;23.39;29.78;99882.13;105303;1268;61295;-76
2022/05/19 10:01:50;;;;;;;2.90;1.10;;;;;;;23.32;29.17;99879.27;105252;1268;75202;-75
2022/05/19 10:04:19;;;;;;;5.10;1.40;;;;;;;23.29;29.69;99875.28;105291;1268;70140;-76
2022/05/19 10:06:57;;;;;;;3.50;1.70;;;;;;;23.38;30.28;99868.66;105226;1268;71550;-76
2022/05/19 10:09:32;;;;;;;2.70;1.50;;;;;;;23.49;29.91;99873.30;105263;1268;61348;-76
2022/05/19 10:12:08;;;;;;;2.70;1.10;;;;;;;23.59;29.60;99866.05;105242;1268;61840;-76
2022/05/19 10:14:35;;;;;;;3.60;1.40;;;;;;;23.57;29.22;99865.16;105228;1268;75104;-75
2022/05/19 10:17:33;;;;;;;4.70;1.50;;;;;;;23.54;29.20;99862.80;105231;1268;69367;-76
2022/05/19 10:20:25;;;;;;;2.70;1.40;;;;;;;23.60;29.53;99858.48;105291;1268;74451;-76
2022/05/19 10:23:10;;;;;;;1.70;1.20;;;;;;;23.67;28.95;99852.56;105234;1268;61221;-78
2022/05/19 10:26:00;;;;;;;2.50;1.30;;;;;;;23.63;28.92;99851.09;105229;1268;61874;-76
2022/05/19 10:31:59;;;;;;;2.80;1.50;;;;;;;23.69;29.25;99839.44;105236;1268;70108;-77
2022/05/19 10:34:47;;;;;;;1.70;1.40;;;;;;;23.80;28.97;99843.55;105209;1268;74996;-77
2022/05/19 10:37:33;;;;;;;3.80;1.30;;;;;;;23.83;29.06;99836.11;105219;1268;61316;-77
2022/05/19 10:40:21;;;;;;;1.40;1.20;;;;;;;23.94;28.62;99836.05;105233;1268;61775;-77
2022/05/19 10:43:02;;;;;;;1.90;1.30;;;;;;;23.78;27.70;99832.23;105234;1268;76362;-77
2022/05/19 10:45:46;;;;;;;3.10;1.50;;;;;;;23.65;28.33;99833.34;105239;1268;69749;-77
2022/05/19 10:48:12;;;;;;;1.60;1.20;;;;;;;23.72;29.30;99832.56;105208;1268;73476;-75
2022/05/19 10:50:58;;;;;;;1.40;1.20;;;;;;;23.88;29.46;99829.00;105195;1268;61417;-77
2022/05/19 10:53:24;;;;;;;3.30;1.50;;;;;;;24.07;30.18;99823.66;105243;1268;61297;-77
2022/05/19 10:56:16;;;;;;;2.40;1.30;;;;;;;24.20;29.17;99821.90;105235;1268;61223;-76
2022/05/19 10:59:11;;;;;;;2.60;1.50;;;;;;;24.19;28.64;99820.73;105047;1269;69171;-76
2022/05/19 11:01:54;;;;;;;4.20;1.50;;;;;;;24.14;29.49;99822.04;105293;1268;74303;-77
2022/05/19 11:04:23;;;;;;;3.20;1.60;;;;;;;24.10;29.17;99818.94;105242;1268;61186;-75
2022/05/19 11:07:14;;;;;;;1.50;1.30;;;;;;;24.07;28.87;99820.06;105252;1268;61363;-75
2022/05/19 11:09:52;;;;;;;3.70;1.70;;;;;;;24.15;30.06;99819.92;105257;1267;73324;-76
2022/05/19 11:12:35;;;;;;;8.90;1.50;;;;;;;24.32;29.91;99816.77;105240;1268;69212;-76
2022/05/19 11:15:14;;;;;;;6.70;1.90;;;;;;;24.39;29.49;99816.71;104941;1268;72912;-77
2022/05/19 11:17:58;;;;;;;7.00;1.50;;;;;;;24.32;28.07;99809.77;105246;1268;61316;-77
2022/05/19 11:20:33;;;;;;;2.80;1.60;;;;;;;24.07;28.52;99806.75;105051;1268;61167;-76
2022/05/19 11:23:15;;;;;;;2.80;1.50;;;;;;;24.07;29.01;99801.00;105210;1268;75364;-76
2022/05/19 11:28:49;;;;;;;4.10;1.70;;;;;;;24.17;28.62;99787.69;105053;1268;73252;-76
2022/05/19 11:31:36;;;;;;;2.70;1.70;;;;;;;24.23;28.56;99784.10;105230;1268;61319;-78
2022/05/19 11:34:15;;;;;;;4.10;2.10;;;;;;;24.35;29.55;99787.66;105246;1268;61504;-76
2022/05/19 11:36:59;;;;;;;3.20;1.90;;;;;;;24.45;29.04;99788.91;105239;1268;75326;-76
2022/05/19 11:39:30;;;;;;;2.30;1.70;;;;;;;24.47;29.14;99781.41;105231;1268;69252;-77
2022/05/19 11:42:20;;;;;;;3.50;1.80;;;;;;;24.50;28.84;99777.48;105267;1268;73455;-76
2022/05/19 11:44:46;;;;;;;3.40;1.50;;;;;;;24.49;28.56;99776.50;104600;1277;61335;-76
2022/05/19 11:55:55;;;;;;;2.80;1.80;;;;;;;24.41;27.84;99754.66;104814;1277;73191;-76
2022/05/19 11:58:29;;;;;;;1.80;1.50;;;;;;;24.48;28.47;99755.31;104836;1277;61516;-75
2022/05/19 12:01:06;;;;;;;4.00;1.90;;;;;;;24.57;28.74;99747.46;105004;1277;61207;-76
2022/05/19 12:03:58;;;;;;;2.70;1.60;;;;;;;24.69;28.72;99747.77;104824;1277;75367;-75